createdAt,value
2022-11-03T00:02:12.837Z,14.82
2022-11-03T00:04:39.817Z,15.43
2022-11-03T00:07:06.821Z,14.30
2022-11-03T00:09:33.927Z,16.15
2022-11-03T00:12:01.755Z,13.50
2022-11-03T00:14:28.796Z,16.77
2022-11-03T00:16:56.142Z,17.48
2022-11-03T00:19:22.999Z,15.98
2022-11-03T00:21:50.257Z,14.30
2022-11-03T00:24:17.142Z,13.80
2022-11-03T00:26:43.958Z,15.57
2022-11-03T00:29:13.578Z,11.35
2022-11-03T00:31:43.893Z,14.45
2022-11-03T00:34:11.827Z,10.57
2022-11-03T00:36:41.963Z,18.38
2022-11-03T00:39:10.183Z,15.02
2022-11-03T00:41:37.730Z,14.85
2022-11-03T00:44:04.981Z,17.48
2022-11-03T00:46:35.410Z,15.40
2022-11-03T00:49:04.726Z,12.20
2022-11-03T00:51:34.340Z,9.80
2022-11-03T00:54:04.554Z,15.82
2022-11-03T00:56:35.369Z,17.20
2022-11-03T00:59:04.800Z,14.95
2022-11-03T01:01:45.634Z,12.85
2022-11-03T01:04:33.487Z,11.20
2022-11-03T01:07:02.373Z,12.60
2022-11-03T01:09:31.528Z,15.80
2022-11-03T01:12:16.318Z,12.95
2022-11-03T01:14:52.445Z,11.48
2022-11-03T01:17:26.648Z,14.63
2022-11-03T01:19:54.442Z,15.25
2022-11-03T01:22:23.345Z,13.68
2022-11-03T01:24:52.114Z,14.75
2022-11-03T01:27:22.374Z,12.80
2022-11-03T01:29:49.411Z,12.00
2022-11-03T01:32:17.087Z,13.15
2022-11-03T01:34:44.025Z,15.18
2022-11-03T01:37:10.906Z,11.60
2022-11-03T01:39:37.927Z,13.10
2022-11-03T01:42:05.285Z,12.55
2022-11-03T01:44:37.837Z,10.85
2022-11-03T01:47:20.010Z,14.27
2022-11-03T01:49:58.957Z,11.13
2022-11-03T01:52:39.117Z,14.13
2022-11-03T01:55:30.029Z,14.18
2022-11-03T01:58:14.114Z,14.50
2022-11-03T02:00:44.344Z,12.68
2022-11-03T02:03:11.650Z,17.60
2022-11-03T02:05:40.361Z,12.02
2022-11-03T02:08:14.799Z,11.27
2022-11-03T02:10:41.816Z,10.85
2022-11-03T02:13:22.060Z,10.13
2022-11-03T02:15:56.714Z,11.90
2022-11-03T02:18:32.084Z,14.60
2022-11-03T02:21:18.779Z,12.82
2022-11-03T02:24:11.087Z,12.40
2022-11-03T02:26:38.458Z,11.20
2022-11-03T02:29:05.309Z,14.13
2022-11-03T02:32:02.117Z,13.70
2022-11-03T02:34:35.787Z,17.40
2022-11-03T02:37:12.593Z,12.27
2022-11-03T02:39:54.606Z,10.30
2022-11-03T02:42:23.791Z,13.02
2022-11-03T02:44:52.447Z,10.32
2022-11-03T02:47:21.510Z,14.32
2022-11-03T02:49:50.829Z,12.45
2022-11-03T02:52:47.362Z,14.85
2022-11-03T02:55:34.485Z,10.87
2022-11-03T02:58:55.199Z,11.55
2022-11-03T03:01:48.933Z,11.15
2022-11-03T03:04:51.218Z,10.95
2022-11-03T03:07:27.314Z,10.57
2022-11-03T03:10:03.849Z,8.52
2022-11-03T03:12:35.531Z,11.82
2022-11-03T03:15:06.283Z,11.30
2022-11-03T03:17:46.293Z,8.00
2022-11-03T03:21:05.752Z,13.38
2022-11-03T03:23:37.613Z,10.85
2022-11-03T03:26:32.178Z,10.05
2022-11-03T03:29:17.672Z,7.93
2022-11-03T03:31:53.915Z,9.80
2022-11-03T03:37:06.168Z,8.80
2022-11-03T03:39:36.813Z,8.80
2022-11-03T03:42:05.776Z,12.00
2022-11-03T03:44:34.172Z,12.25
2022-11-03T03:47:08.015Z,11.35
2022-11-03T03:49:34.924Z,11.20
2022-11-03T03:52:03.759Z,11.18
2022-11-03T03:54:30.768Z,14.98
2022-11-03T03:57:06.200Z,16.50
2022-11-03T03:59:33.648Z,14.80
2022-11-03T04:02:00.666Z,11.15
2022-11-03T04:04:27.896Z,12.48
2022-11-03T04:07:14.912Z,11.90
2022-11-03T04:09:42.055Z,18.13
2022-11-03T04:12:28.539Z,17.75
2022-11-03T04:15:13.781Z,19.58
2022-11-03T04:18:05.832Z,22.55
2022-11-03T04:20:52.806Z,22.05
2022-11-03T04:23:20.350Z,26.73
2022-11-03T04:25:57.547Z,24.40
2022-11-03T04:28:27.390Z,27.65
2022-11-03T04:30:59.579Z,29.25
2022-11-03T04:33:27.136Z,23.55
2022-11-03T04:35:58.663Z,27.88
2022-11-03T04:38:27.758Z,21.45
2022-11-03T04:40:57.483Z,17.58
2022-11-03T04:43:33.526Z,20.52
2022-11-03T04:46:01.287Z,18.38
2022-11-03T04:48:29.397Z,20.52
2022-11-03T04:51:02.419Z,18.15
2022-11-03T04:53:33.170Z,15.98
2022-11-03T04:56:07.038Z,16.27
2022-11-03T04:58:36.344Z,14.77
2022-11-03T05:01:03.899Z,15.23
2022-11-03T05:03:34.439Z,14.38
2022-11-03T05:06:22.417Z,13.68
2022-11-03T05:09:17.552Z,15.07
2022-11-03T05:11:48.255Z,15.88
2022-11-03T05:14:20.703Z,13.80
2022-11-03T05:16:50.964Z,15.48
2022-11-03T05:19:39.382Z,12.48
2022-11-03T05:22:17.302Z,19.30
2022-11-03T05:24:44.924Z,12.80
2022-11-03T05:27:22.770Z,13.80
2022-11-03T05:29:51.479Z,13.38
2022-11-03T05:32:28.845Z,18.33
2022-11-03T05:34:57.063Z,12.95
2022-11-03T05:37:31.305Z,13.95
2022-11-03T05:40:05.087Z,14.38
2022-11-03T05:42:37.207Z,19.38
2022-11-03T05:45:25.768Z,15.45
2022-11-03T05:47:56.100Z,14.30
2022-11-03T05:50:28.011Z,12.52
2022-11-03T05:53:26.834Z,12.00
2022-11-03T05:55:55.851Z,9.00
2022-11-03T05:58:41.382Z,10.65
2022-11-03T06:01:41.508Z,10.88
2022-11-03T06:04:20.984Z,11.85
2022-11-03T06:07:01.359Z,9.43
2022-11-03T06:09:29.186Z,8.90
2022-11-03T06:11:59.318Z,13.00
2022-11-03T06:14:28.595Z,16.73
2022-11-03T06:17:02.639Z,14.77
2022-11-03T06:19:48.071Z,10.77
2022-11-03T06:22:28.758Z,10.98
2022-11-03T06:25:12.084Z,8.15
2022-11-03T06:27:39.586Z,11.65
2022-11-03T06:30:29.576Z,13.05
2022-11-03T06:33:02.113Z,11.13
2022-11-03T06:35:29.216Z,7.78
2022-11-03T06:38:00.196Z,9.65
2022-11-03T06:40:37.170Z,10.25
2022-11-03T06:43:19.392Z,10.15
2022-11-03T06:45:53.645Z,8.82
2022-11-03T06:48:30.462Z,15.10
2022-11-03T06:50:59.997Z,18.98
2022-11-03T06:53:32.159Z,13.60
2022-11-03T06:55:59.983Z,13.05
2022-11-03T06:58:38.506Z,16.08
2022-11-03T07:01:20.353Z,10.40
2022-11-03T07:03:49.484Z,11.95
2022-11-03T07:06:26.305Z,10.43
2022-11-03T07:08:56.612Z,10.90
2022-11-03T07:11:28.455Z,9.02
2022-11-03T07:14:09.807Z,10.95
2022-11-03T07:16:51.182Z,13.20
2022-11-03T07:19:24.089Z,13.70
2022-11-03T07:21:56.931Z,7.80
2022-11-03T07:24:34.060Z,20.27
2022-11-03T07:27:22.992Z,18.83
2022-11-03T07:29:51.531Z,15.88
2022-11-03T07:32:31.730Z,19.02
2022-11-03T07:35:23.058Z,30.40
2022-11-03T07:37:52.646Z,26.65
2022-11-03T07:40:28.159Z,8.35
2022-11-03T07:43:01.359Z,8.57
2022-11-03T07:45:31.017Z,12.52
2022-11-03T07:48:04.420Z,7.55
2022-11-03T07:50:35.400Z,15.73
2022-11-03T07:53:02.786Z,11.98
2022-11-03T07:55:29.668Z,10.13
2022-11-03T07:57:59.317Z,9.00
2022-11-03T08:00:27.454Z,8.25
2022-11-03T08:03:00.901Z,7.65
2022-11-03T08:05:27.913Z,8.35
2022-11-03T08:07:54.780Z,9.88
2022-11-03T08:10:21.964Z,9.00
2022-11-03T08:12:48.818Z,7.30
2022-11-03T08:15:15.951Z,8.68
2022-11-03T08:17:42.839Z,8.10
2022-11-03T08:20:10.429Z,6.88
2022-11-03T08:22:37.244Z,10.80
2022-11-03T08:25:04.814Z,7.50
2022-11-03T08:27:31.637Z,6.88
2022-11-03T08:29:58.644Z,9.40
2022-11-03T08:32:25.883Z,6.55
2022-11-03T08:34:52.811Z,18.40
2022-11-03T08:37:19.628Z,4.90
2022-11-03T08:39:46.644Z,8.35
2022-11-03T08:42:13.455Z,7.95
2022-11-03T08:44:40.531Z,10.27
2022-11-03T08:47:08.094Z,6.93
2022-11-03T08:49:35.015Z,7.53
2022-11-03T08:52:01.824Z,7.57
2022-11-03T08:54:29.306Z,5.65
2022-11-03T08:56:56.159Z,10.93
2022-11-03T08:59:23.066Z,9.73
2022-11-03T09:01:50.725Z,6.43
2022-11-03T09:04:17.671Z,7.28
2022-11-03T09:06:44.527Z,10.43
2022-11-03T09:11:58.609Z,7.40
2022-11-03T09:14:25.637Z,9.35
2022-11-03T09:16:52.578Z,5.15
2022-11-03T09:19:19.430Z,7.57
2022-11-03T09:21:46.553Z,6.45
2022-11-03T09:24:13.365Z,8.13
2022-11-03T09:26:40.562Z,7.93
2022-11-03T09:29:07.513Z,4.53
2022-11-03T09:31:34.427Z,7.60
2022-11-03T09:34:01.253Z,6.68
2022-11-03T09:36:28.308Z,7.35
2022-11-03T09:38:55.183Z,6.28
2022-11-03T09:41:29.157Z,6.55
2022-11-03T09:44:10.455Z,5.15
2022-11-03T09:46:37.856Z,5.13
2022-11-03T09:49:05.932Z,6.45
2022-11-03T09:51:35.094Z,6.32
2022-11-03T09:54:04.951Z,13.10
2022-11-03T09:56:35.905Z,7.13
2022-11-03T09:59:17.353Z,5.43
2022-11-03T10:01:48.928Z,5.05
2022-11-03T10:04:28.041Z,11.77
2022-11-03T10:06:56.762Z,10.73
2022-11-03T10:09:25.187Z,8.23
2022-11-03T10:11:54.471Z,7.20
2022-11-03T10:14:23.010Z,6.28
2022-11-03T10:16:57.410Z,4.38
2022-11-03T10:19:25.075Z,8.23
2022-11-03T10:21:52.600Z,6.38
2022-11-03T10:24:19.869Z,5.63
2022-11-03T10:26:57.268Z,8.27
2022-11-03T10:29:26.833Z,7.43
2022-11-03T10:31:56.817Z,6.75
2022-11-03T10:34:34.553Z,8.45
2022-11-03T10:37:20.939Z,5.97
2022-11-03T10:39:50.698Z,5.78
2022-11-03T10:42:30.502Z,6.03
2022-11-03T10:45:20.516Z,5.97
2022-11-03T10:48:01.731Z,8.60
2022-11-03T10:50:29.123Z,5.95
2022-11-03T10:52:56.726Z,4.05
2022-11-03T10:55:25.798Z,7.68
2022-11-03T10:57:58.139Z,7.75
2022-11-03T11:00:25.513Z,4.63
2022-11-03T11:03:00.344Z,10.18
2022-11-03T11:05:27.474Z,4.13
2022-11-03T11:07:55.446Z,9.27
2022-11-03T11:10:29.149Z,6.65
2022-11-03T11:13:19.145Z,4.95
2022-11-03T11:15:51.084Z,5.32
2022-11-03T11:18:29.987Z,5.45
2022-11-03T11:21:01.275Z,7.22
2022-11-03T11:23:28.533Z,6.55
2022-11-03T11:26:10.862Z,7.97
2022-11-03T11:28:46.627Z,4.65
2022-11-03T11:31:22.765Z,4.03
2022-11-03T11:33:50.200Z,10.57
2022-11-03T11:36:24.342Z,5.75
2022-11-03T11:38:55.602Z,8.93
2022-11-03T11:42:11.808Z,9.15
2022-11-03T11:44:54.505Z,4.63
2022-11-03T11:47:45.835Z,6.07
2022-11-03T11:50:21.486Z,5.47
2022-11-03T11:53:11.153Z,10.68
2022-11-03T11:55:55.380Z,13.45
2022-11-03T11:58:48.231Z,19.08
2022-11-03T12:01:29.394Z,23.80
2022-11-03T12:04:01.069Z,12.80
2022-11-03T12:06:36.904Z,10.48
2022-11-03T12:09:19.061Z,7.43
2022-11-03T12:11:52.591Z,7.32
2022-11-03T12:16:58.336Z,11.27
2022-11-03T12:19:42.355Z,5.47
2022-11-03T12:22:11.610Z,5.22
2022-11-03T12:24:51.695Z,5.15
2022-11-03T12:27:18.542Z,7.78
2022-11-03T12:29:45.378Z,4.10
2022-11-03T12:32:25.855Z,4.28
2022-11-03T12:37:26.214Z,5.28
2022-11-03T12:39:53.162Z,5.95
2022-11-03T12:42:21.006Z,5.32
2022-11-03T12:44:48.151Z,6.88
2022-11-03T12:47:14.984Z,8.90
2022-11-03T12:49:41.905Z,5.70
2022-11-03T12:52:09.724Z,3.47
2022-11-03T12:54:36.644Z,8.43
2022-11-03T12:57:03.587Z,5.57
2022-11-03T12:59:30.535Z,18.05
2022-11-03T13:01:57.487Z,18.73
2022-11-03T13:04:24.713Z,16.27
2022-11-03T13:06:51.776Z,27.98
2022-11-03T13:09:18.680Z,16.15
2022-11-03T13:12:04.310Z,10.82
2022-11-03T13:14:31.239Z,6.75
2022-11-03T13:16:58.523Z,7.00
2022-11-03T13:19:25.763Z,9.95
2022-11-03T13:21:52.585Z,9.80
2022-11-03T13:24:20.221Z,8.98
2022-11-03T13:26:47.308Z,8.35
2022-11-03T13:29:14.342Z,4.70
2022-11-03T13:31:41.236Z,8.75
2022-11-03T13:34:08.761Z,8.90
2022-11-03T13:36:35.589Z,5.40
2022-11-03T13:39:02.545Z,6.85
2022-11-03T13:41:29.409Z,7.22
2022-11-03T13:43:56.338Z,5.35
2022-11-03T13:46:23.156Z,4.95
2022-11-03T13:49:40.939Z,4.47
2022-11-03T13:51:37.429Z,4.88
2022-11-03T13:59:38.858Z,8.40
2022-11-03T14:04:54.007Z,5.78
2022-11-03T14:07:20.865Z,3.03
2022-11-03T14:09:47.858Z,3.60
2022-11-03T14:12:32.977Z,6.28
2022-11-03T14:15:01.880Z,5.07
2022-11-03T14:17:28.847Z,8.40
2022-11-03T14:20:00.729Z,7.47
2022-11-03T14:22:31.059Z,6.93
2022-11-03T14:24:58.655Z,5.95
2022-11-03T14:27:25.908Z,9.40
2022-11-03T14:29:52.806Z,9.13
2022-11-03T14:32:20.676Z,5.78
2022-11-03T14:34:48.574Z,7.97
2022-11-03T14:37:16.085Z,6.82
2022-11-03T14:39:43.228Z,6.18
2022-11-03T14:42:16.478Z,8.90
2022-11-03T14:44:45.900Z,9.73
2022-11-03T14:47:17.782Z,6.63
2022-11-03T14:49:46.434Z,8.65
2022-11-03T14:52:14.144Z,8.00
2022-11-03T14:54:41.189Z,18.30
2022-11-03T14:57:08.148Z,6.15
2022-11-03T14:59:35.349Z,6.97
2022-11-03T15:02:03.601Z,9.57
2022-11-03T15:04:30.969Z,5.60
2022-11-03T15:06:57.776Z,11.23
2022-11-03T15:09:24.904Z,6.43
2022-11-03T15:11:52.034Z,11.00
2022-11-03T15:14:18.991Z,5.95
2022-11-03T15:16:46.169Z,8.23
2022-11-03T15:19:13.526Z,13.27
2022-11-03T15:21:40.353Z,7.35
2022-11-03T15:26:54.767Z,11.25
2022-11-03T15:29:23.774Z,7.30
2022-11-03T15:31:50.816Z,6.22
2022-11-03T15:34:18.496Z,9.55
2022-11-03T15:36:45.519Z,11.55
2022-11-03T15:39:13.242Z,10.32
2022-11-03T15:41:40.772Z,8.60
2022-11-03T15:44:07.810Z,8.80
2022-11-03T15:46:35.787Z,10.20
2022-11-03T15:49:03.526Z,9.52
2022-11-03T15:51:30.532Z,9.13
2022-11-03T15:53:59.054Z,15.02
2022-11-03T15:56:29.779Z,11.55
2022-11-03T15:58:56.690Z,7.32
2022-11-03T16:01:24.187Z,7.40
2022-11-03T16:03:51.719Z,10.75
2022-11-03T16:06:18.573Z,11.45
2022-11-03T16:08:45.917Z,10.85
2022-11-03T16:11:14.295Z,9.43
2022-11-03T16:13:41.226Z,6.70
2022-11-03T16:16:08.434Z,4.60
2022-11-03T16:18:35.443Z,6.38
2022-11-03T16:21:02.346Z,10.27
2022-11-03T16:23:29.242Z,8.70
2022-11-03T16:25:56.392Z,6.70
2022-11-03T16:28:23.734Z,6.50
2022-11-03T16:30:54.309Z,11.55
2022-11-03T16:33:22.476Z,7.90
2022-11-03T16:35:49.571Z,10.25
2022-11-03T16:38:16.798Z,8.15
2022-11-03T16:40:44.112Z,9.15
2022-11-03T16:43:12.150Z,8.30
2022-11-03T16:45:39.142Z,12.60
2022-11-03T16:48:07.726Z,12.85
2022-11-03T16:50:35.263Z,10.98
2022-11-03T16:53:02.991Z,8.38
2022-11-03T16:55:30.103Z,6.95
2022-11-03T16:57:56.918Z,7.88
2022-11-03T17:00:24.264Z,12.90
2022-11-03T17:02:51.941Z,8.45
2022-11-03T17:05:20.740Z,5.30
2022-11-03T17:07:53.335Z,9.23
2022-11-03T17:10:22.705Z,7.75
2022-11-03T17:12:50.586Z,7.60
2022-11-03T17:15:17.605Z,12.23
2022-11-03T17:17:45.287Z,8.15
2022-11-03T17:20:13.036Z,7.18
2022-11-03T17:22:40.175Z,7.97
2022-11-03T17:25:09.578Z,7.65
2022-11-03T17:27:51.584Z,6.60
2022-11-03T17:30:25.538Z,6.32
2022-11-03T17:32:56.608Z,7.53
2022-11-03T17:35:33.654Z,10.73
2022-11-03T17:38:08.763Z,9.80
2022-11-03T17:40:36.445Z,9.30
2022-11-03T17:43:06.524Z,9.98
2022-11-03T17:45:33.770Z,6.47
2022-11-03T17:48:00.794Z,8.63
2022-11-03T17:50:27.831Z,7.15
2022-11-03T17:52:54.806Z,8.07
2022-11-03T17:55:32.231Z,8.95
2022-11-03T17:58:03.928Z,9.25
2022-11-03T18:00:31.343Z,10.52
2022-11-03T18:02:58.492Z,12.27
2022-11-03T18:05:30.339Z,11.27
2022-11-03T18:08:02.950Z,8.38
2022-11-03T18:10:36.551Z,8.00
2022-11-03T18:13:19.439Z,6.30
2022-11-03T18:15:50.752Z,8.18
2022-11-03T18:18:30.038Z,14.38
2022-11-03T18:20:57.843Z,8.52
2022-11-03T18:23:30.113Z,5.50
2022-11-03T18:26:01.739Z,9.07
2022-11-03T18:28:29.285Z,8.10
2022-11-03T18:30:57.383Z,7.13
2022-11-03T18:33:32.533Z,10.60
2022-11-03T18:36:04.226Z,13.05
2022-11-03T18:38:31.088Z,7.38
2022-11-03T18:40:57.964Z,6.43
2022-11-03T18:43:25.784Z,6.85
2022-11-03T18:45:52.870Z,11.77
2022-11-03T18:48:19.996Z,8.60
2022-11-03T18:50:55.294Z,10.27
2022-11-03T18:53:25.726Z,7.45
2022-11-03T18:55:54.089Z,5.60
2022-11-03T18:58:24.239Z,9.52
2022-11-03T19:00:55.193Z,9.18
2022-11-03T19:03:23.663Z,10.95
2022-11-03T19:05:52.779Z,9.40
2022-11-03T19:08:27.086Z,11.05
2022-11-03T19:10:55.871Z,10.02
2022-11-03T19:13:34.553Z,10.30
2022-11-03T19:16:08.002Z,9.20
2022-11-03T19:18:36.164Z,6.32
2022-11-03T19:21:02.972Z,9.23
2022-11-03T19:23:30.169Z,8.15
2022-11-03T19:25:59.645Z,6.47
2022-11-03T19:28:29.879Z,7.85
2022-11-03T19:30:58.396Z,13.07
2022-11-03T19:33:30.655Z,11.02
2022-11-03T19:35:58.497Z,8.88
2022-11-03T19:38:25.495Z,8.18
2022-11-03T19:41:11.427Z,6.18
2022-11-03T19:43:38.346Z,8.77
2022-11-03T19:46:05.458Z,8.32
2022-11-03T19:48:34.399Z,7.03
2022-11-03T19:51:02.078Z,9.52
2022-11-03T19:53:29.982Z,9.65
2022-11-03T19:55:57.529Z,9.40
2022-11-03T19:58:27.452Z,8.82
2022-11-03T20:00:55.367Z,7.65
2022-11-03T20:03:23.538Z,8.73
2022-11-03T20:05:58.073Z,6.93
2022-11-03T20:08:29.297Z,9.68
2022-11-03T20:10:56.473Z,8.30
2022-11-03T20:13:26.605Z,12.30
2022-11-03T20:16:00.602Z,9.95
2022-11-03T20:18:27.981Z,14.95
2022-11-03T20:20:55.110Z,8.35
2022-11-03T20:23:29.903Z,8.23
2022-11-03T20:25:57.368Z,9.63
2022-11-03T20:28:28.907Z,9.18
2022-11-03T20:30:57.446Z,9.73
2022-11-03T20:33:25.503Z,10.05
2022-11-03T20:35:54.188Z,9.05
2022-11-03T20:38:22.768Z,8.35
2022-11-03T20:40:55.604Z,10.60
2022-11-03T20:43:31.533Z,11.38
2022-11-03T20:45:59.223Z,9.77
2022-11-03T20:48:26.171Z,12.30
2022-11-03T20:50:54.484Z,8.20
2022-11-03T20:53:23.891Z,9.38
2022-11-03T20:55:52.061Z,11.75
2022-11-03T20:58:19.271Z,12.85
2022-11-03T21:00:48.329Z,9.20
2022-11-03T21:06:17.512Z,11.73
2022-11-03T21:08:46.335Z,11.32
2022-11-03T21:11:36.717Z,12.02
2022-11-03T21:14:26.824Z,10.77
2022-11-03T21:17:12.453Z,10.05
2022-11-03T21:19:58.652Z,9.27
2022-11-03T21:22:52.029Z,7.13
2022-11-03T21:25:22.351Z,8.13
2022-11-03T21:27:49.678Z,9.88
2022-11-03T21:30:18.200Z,14.85
2022-11-03T21:32:45.344Z,15.20
2022-11-03T21:35:19.146Z,10.48
2022-11-03T21:37:46.407Z,11.60
2022-11-03T21:40:13.263Z,15.75
2022-11-03T21:42:59.362Z,11.00
2022-11-03T21:45:26.417Z,12.07
2022-11-03T21:48:13.975Z,11.30
2022-11-03T21:50:42.439Z,11.45
2022-11-03T21:53:10.926Z,10.50
2022-11-03T21:55:38.547Z,10.82
2022-11-03T21:58:05.815Z,8.52
2022-11-03T22:00:33.155Z,13.45
2022-11-03T22:03:00.991Z,12.10
2022-11-03T22:05:28.980Z,9.25
2022-11-03T22:07:55.789Z,12.30
2022-11-03T22:10:23.419Z,12.13
2022-11-03T22:12:50.380Z,13.27
2022-11-03T22:15:36.450Z,10.02
2022-11-03T22:18:05.427Z,12.35
2022-11-03T22:20:51.194Z,11.43
2022-11-03T22:23:36.903Z,8.25
2022-11-03T22:26:22.408Z,9.20
2022-11-03T22:29:11.994Z,10.90
2022-11-03T22:31:41.649Z,10.82
2022-11-03T22:34:27.440Z,11.07
2022-11-03T22:36:54.758Z,15.07
2022-11-03T22:39:39.985Z,12.88
2022-11-03T22:42:25.789Z,23.67
2022-11-03T22:45:11.191Z,13.50
2022-11-03T22:47:38.234Z,13.73
2022-11-03T22:50:05.471Z,11.88
2022-11-03T22:52:32.500Z,13.27
2022-11-03T22:54:59.422Z,14.77
2022-11-03T22:57:26.570Z,14.73
2022-11-03T22:59:53.408Z,14.65
2022-11-03T23:02:20.580Z,10.63
2022-11-03T23:04:47.453Z,13.05
2022-11-03T23:07:14.456Z,11.65
2022-11-03T23:09:41.548Z,15.93
2022-11-03T23:12:08.483Z,12.27
2022-11-03T23:14:54.174Z,13.43
2022-11-03T23:17:41.156Z,10.73
2022-11-03T23:22:54.104Z,10.48
2022-11-03T23:25:20.914Z,13.00
2022-11-03T23:27:48.000Z,11.38
2022-11-03T23:30:14.886Z,12.40
2022-11-03T23:32:42.014Z,12.18
2022-11-03T23:35:09.773Z,14.88
2022-11-03T23:37:36.629Z,11.65
2022-11-03T23:40:03.667Z,10.00
2022-11-03T23:42:30.634Z,17.33
2022-11-03T23:45:15.770Z,13.90
2022-11-03T23:48:01.430Z,11.93
2022-11-03T23:50:28.274Z,15.48
2022-11-03T23:52:55.147Z,11.98
2022-11-03T23:55:22.215Z,11.85
2022-11-03T23:58:07.970Z,10.95
